Time;durP1;ratioP1;P1;durP2;ratioP2;P2;SDS_P1;SDS_P2;PMS_P1;PMS_P2;Temp;Humidity;BMP_temperature;BMP_pressure;BME280_temperature;BME280_humidity;BME280_pressure;Samples;Min_cycle;Max_cycle;Signal;HPM_P1;HPM_P2
2023/04/09 00:00:21;;;;;;;39.33;30.90;;;4.30;99.90;;;;;;5056515;28;20528;-63
2023/04/09 00:02:50;;;;;;;37.97;27.60;;;4.20;99.90;;;;;;5042134;28;20471;-63
2023/04/09 00:05:17;;;;;;;39.87;29.10;;;4.20;99.90;;;;;;5044895;28;20921;-63
2023/04/09 00:07:44;;;;;;;37.37;25.60;;;4.10;99.90;;;;;;5050949;28;20473;-64
2023/04/09 00:10:11;;;;;;;41.20;27.80;;;4.10;99.90;;;;;;5045839;28;20458;-63
2023/04/09 00:12:38;;;;;;;36.33;26.67;;;4.10;99.90;;;;;;5055232;28;20472;-63
2023/04/09 00:15:06;;;;;;;34.23;25.40;;;4.10;99.90;;;;;;5060463;28;20458;-64
2023/04/09 00:17:34;;;;;;;34.37;26.07;;;4.00;99.90;;;;;;5060230;28;20458;-63
2023/04/09 00:20:02;;;;;;;37.77;27.17;;;4.00;99.90;;;;;;5060485;28;20522;-64
2023/04/09 00:22:30;;;;;;;37.57;27.70;;;4.00;99.90;;;;;;5060094;28;20466;-63
2023/04/09 00:24:57;;;;;;;36.67;25.80;;;4.10;99.90;;;;;;5060098;28;20472;-63
2023/04/09 00:27:24;;;;;;;37.07;26.87;;;4.00;99.90;;;;;;5059717;28;20462;-63
2023/04/09 00:29:54;;;;;;;33.40;24.10;;;3.90;99.90;;;;;;5058764;28;20539;-63
2023/04/09 00:32:21;;;;;;;35.13;26.23;;;3.90;99.90;;;;;;5042316;28;20467;-63
2023/04/09 00:34:48;;;;;;;34.53;26.53;;;3.90;99.90;;;;;;5043033;28;20484;-63
2023/04/09 00:37:17;;;;;;;38.70;28.00;;;3.90;99.90;;;;;;5057622;28;20497;-63
2023/04/09 00:39:45;;;;;;;32.67;25.70;;;3.90;99.90;;;;;;5058677;28;20959;-63
2023/04/09 00:42:12;;;;;;;33.00;25.77;;;3.90;99.90;;;;;;5048575;28;20808;-63
2023/04/09 00:44:40;;;;;;;37.93;27.40;;;3.80;99.90;;;;;;5039475;28;20469;-63
2023/04/09 00:47:07;;;;;;;35.10;25.80;;;3.80;99.90;;;;;;5056331;28;20751;-63
2023/04/09 00:49:34;;;;;;;35.53;27.30;;;3.80;99.90;;;;;;5059666;28;20908;-63
2023/04/09 00:52:02;;;;;;;37.70;28.83;;;3.70;99.90;;;;;;5040298;28;20901;-63
2023/04/09 00:54:30;;;;;;;37.93;28.50;;;3.70;99.90;;;;;;5042047;28;20489;-63
2023/04/09 00:56:58;;;;;;;34.77;29.67;;;3.70;99.90;;;;;;5038927;28;20467;-63
2023/04/09 00:59:25;;;;;;;35.23;28.87;;;3.60;99.90;;;;;;5049713;28;20891;-63
2023/04/09 01:01:53;;;;;;;33.53;26.30;;;3.60;99.90;;;;;;5059131;28;20466;-63
2023/04/09 01:04:20;;;;;;;35.13;28.20;;;3.60;99.90;;;;;;5059016;28;20761;-63
2023/04/09 01:06:52;;;;;;;37.43;27.13;;;3.50;99.90;;;;;;5054032;28;20462;-63
2023/04/09 01:09:27;;;;;;;39.40;28.40;;;3.50;99.90;;;;;;5052273;28;20470;-63
2023/04/09 01:12:13;;;;;;;37.87;27.10;;;3.50;99.90;;;;;;5046665;28;20516;-63
2023/04/09 01:14:49;;;;;;;38.30;28.83;;;3.40;99.90;;;;;;5044779;28;20462;-63
2023/04/09 01:17:21;;;;;;;37.10;27.27;;;3.40;99.90;;;;;;5059751;28;20719;-63
2023/04/09 01:19:58;;;;;;;33.90;27.90;;;3.40;99.90;;;;;;5057855;28;20875;-63
2023/04/09 01:22:39;;;;;;;34.23;25.37;;;3.20;99.90;;;;;;5058995;28;20470;-63
2023/04/09 01:25:22;;;;;;;33.20;26.30;;;3.20;99.90;;;;;;5058898;28;20561;-63
2023/04/09 01:27:56;;;;;;;35.50;26.60;;;3.10;99.90;;;;;;5058894;28;20469;-63
2023/04/09 01:30:27;;;;;;;32.50;25.23;;;3.10;99.90;;;;;;5057247;28;20879;-63
2023/04/09 01:32:56;;;;;;;34.53;23.40;;;3.10;99.90;;;;;;5058654;28;20470;-63
2023/04/09 01:35:25;;;;;;;34.63;25.00;;;2.90;99.90;;;;;;5058808;28;20474;-63
2023/04/09 01:37:54;;;;;;;32.17;24.87;;;2.90;99.90;;;;;;5058414;28;20478;-63
2023/04/09 01:40:21;;;;;;;36.30;26.53;;;2.80;99.90;;;;;;5058660;28;20486;-63
2023/04/09 01:42:49;;;;;;;34.17;26.17;;;2.80;99.90;;;;;;5054075;28;20917;-63
2023/04/09 01:45:18;;;;;;;32.70;25.27;;;2.80;99.90;;;;;;5039165;28;20450;-63
2023/04/09 01:47:47;;;;;;;35.93;26.47;;;2.70;99.90;;;;;;5038925;28;20466;-63
2023/04/09 01:50:15;;;;;;;33.80;27.10;;;2.70;99.90;;;;;;5052880;28;20468;-63
2023/04/09 01:52:42;;;;;;;38.63;26.30;;;2.70;99.90;;;;;;5058161;28;20474;-63
2023/04/09 01:55:09;;;;;;;36.03;26.63;;;2.60;99.90;;;;;;5058859;28;20463;-63
2023/04/09 01:57:37;;;;;;;31.47;24.43;;;2.60;99.90;;;;;;5058533;28;20827;-63
2023/04/09 02:00:05;;;;;;;28.80;22.83;;;2.60;99.90;;;;;;5055160;28;20473;-63
2023/04/09 02:02:40;;;;;;;34.23;25.47;;;2.50;99.90;;;;;;5038268;28;20489;-63
2023/04/09 02:05:12;;;;;;;42.43;26.27;;;2.40;99.90;;;;;;5049826;28;20468;-63
2023/04/09 02:07:43;;;;;;;33.00;24.87;;;2.40;99.90;;;;;;5053199;28;20492;-63
2023/04/09 02:10:13;;;;;;;33.30;25.17;;;2.40;99.90;;;;;;5044104;28;20773;-63
2023/04/09 02:12:45;;;;;;;49.60;26.27;;;2.40;99.90;;;;;;5053601;28;20490;-63
2023/04/09 02:15:13;;;;;;;74.67;28.70;;;2.40;99.90;;;;;;5038138;28;20455;-63
2023/04/09 02:17:41;;;;;;;33.30;25.10;;;2.40;99.90;;;;;;5037576;28;20459;-63
2023/04/09 02:20:10;;;;;;;37.40;24.80;;;2.40;99.90;;;;;;5038312;28;20508;-63
2023/04/09 02:22:39;;;;;;;63.47;28.60;;;2.30;99.90;;;;;;5037742;28;20474;-63
2023/04/09 02:25:07;;;;;;;37.20;26.67;;;2.30;99.90;;;;;;5039504;28;20561;-63
2023/04/09 02:27:34;;;;;;;44.93;27.40;;;2.20;99.90;;;;;;5057488;28;20462;-63
2023/04/09 02:30:01;;;;;;;38.23;26.40;;;2.20;99.90;;;;;;5057394;28;20462;-63
2023/04/09 02:32:28;;;;;;;35.73;26.37;;;2.20;99.90;;;;;;5057788;28;20485;-63
2023/04/09 02:34:55;;;;;;;38.80;26.10;;;2.20;99.90;;;;;;5057760;28;20493;-63
2023/04/09 02:37:24;;;;;;;126.07;32.07;;;2.20;99.90;;;;;;5057752;28;20494;-63
2023/04/09 02:39:51;;;;;;;36.03;26.67;;;2.10;99.90;;;;;;5057612;28;20462;-63
2023/04/09 02:42:19;;;;;;;91.60;28.70;;;2.10;99.90;;;;;;5052300;28;20470;-63
2023/04/09 02:44:46;;;;;;;51.53;27.80;;;2.10;99.90;;;;;;5039675;28;20476;-63
2023/04/09 02:47:13;;;;;;;33.07;24.73;;;2.00;99.90;;;;;;5049401;28;20470;-63
2023/04/09 02:49:40;;;;;;;77.43;26.37;;;2.00;99.90;;;;;;5057567;28;20524;-63
2023/04/09 02:52:09;;;;;;;41.60;26.20;;;2.00;99.90;;;;;;5057430;28;20492;-63
2023/04/09 02:54:38;;;;;;;33.80;24.00;;;2.00;99.90;;;;;;5056599;28;20963;-63
2023/04/09 02:57:05;;;;;;;67.13;28.17;;;2.00;99.90;;;;;;5057634;28;20469;-63
2023/04/09 02:59:34;;;;;;;30.73;22.50;;;1.90;99.90;;;;;;5057882;28;20473;-63
2023/04/09 03:02:01;;;;;;;72.10;26.80;;;1.90;99.90;;;;;;5056817;28;20547;-63
2023/04/09 03:04:28;;;;;;;29.43;22.30;;;1.90;99.90;;;;;;5056155;28;20917;-63
2023/04/09 03:06:55;;;;;;;30.33;23.33;;;1.90;99.90;;;;;;5057121;28;20458;-63
2023/04/09 03:09:23;;;;;;;229.67;38.50;;;1.90;99.90;;;;;;5057400;28;20723;-63
2023/04/09 03:11:51;;;;;;;37.10;23.37;;;1.90;99.90;;;;;;5048028;28;20467;-63
2023/04/09 03:14:18;;;;;;;28.23;22.70;;;1.80;99.90;;;;;;5055291;28;20468;-63
2023/04/09 03:16:45;;;;;;;40.37;25.97;;;1.90;99.90;;;;;;5057213;28;20828;-63
2023/04/09 03:19:12;;;;;;;37.63;22.23;;;2.00;99.90;;;;;;5056960;28;20469;-63
2023/04/09 03:21:40;;;;;;;47.97;22.20;;;1.90;99.90;;;;;;5056523;28;20496;-63
2023/04/09 03:24:07;;;;;;;34.40;23.70;;;1.80;99.90;;;;;;5056909;28;20841;-63
2023/04/09 03:26:36;;;;;;;53.10;24.60;;;1.80;99.90;;;;;;5056759;28;20496;-63
2023/04/09 03:29:06;;;;;;;84.50;25.83;;;1.80;99.90;;;;;;5057129;28;20512;-63
2023/04/09 03:31:33;;;;;;;52.30;21.97;;;1.70;99.90;;;;;;5056788;28;20766;-63
2023/04/09 03:34:00;;;;;;;31.23;22.63;;;1.70;99.90;;;;;;5044839;28;20458;-63
2023/04/09 03:36:27;;;;;;;61.70;23.77;;;1.70;99.90;;;;;;5056812;28;20470;-63
2023/04/09 03:38:55;;;;;;;43.50;22.80;;;1.60;99.90;;;;;;5059320;28;20790;-63
2023/04/09 03:41:22;;;;;;;50.07;22.33;;;1.60;99.90;;;;;;5061057;28;20503;-63
2023/04/09 03:43:49;;;;;;;32.73;20.97;;;1.50;99.90;;;;;;5053196;28;20467;-63
2023/04/09 03:46:19;;;;;;;45.80;22.03;;;1.50;99.90;;;;;;5060969;28;20463;-63
2023/04/09 03:48:46;;;;;;;31.33;19.87;;;1.50;99.90;;;;;;5061098;28;20465;-63
2023/04/09 03:51:14;;;;;;;41.73;20.87;;;1.40;99.90;;;;;;5060890;28;20957;-63
2023/04/09 03:53:41;;;;;;;31.43;22.30;;;1.30;99.90;;;;;;5061175;28;20476;-63
2023/04/09 03:56:09;;;;;;;39.60;22.10;;;1.30;99.90;;;;;;5060363;28;20462;-63
2023/04/09 03:58:37;;;;;;;170.50;30.80;;;1.30;99.90;;;;;;5060120;28;20463;-63
2023/04/09 04:01:04;;;;;;;27.03;21.13;;;1.30;99.90;;;;;;5060740;28;20494;-63
2023/04/09 04:03:33;;;;;;;262.57;38.17;;;1.40;99.90;;;;;;5060693;28;20466;-63
2023/04/09 04:06:02;;;;;;;62.40;24.63;;;1.40;99.90;;;;;;5060285;28;20768;-63
2023/04/09 04:08:29;;;;;;;34.13;22.93;;;1.40;99.90;;;;;;5060298;28;20891;-63
2023/04/09 04:11:03;;;;;;;60.30;25.40;;;1.40;99.90;;;;;;5060959;28;20462;-63
2023/04/09 04:13:31;;;;;;;28.20;21.50;;;1.40;99.90;;;;;;5052258;28;20525;-63
2023/04/09 04:15:58;;;;;;;28.17;22.67;;;1.40;99.90;;;;;;5051471;28;20465;-63
2023/04/09 04:18:25;;;;;;;33.50;21.90;;;1.40;99.90;;;;;;5054249;28;20462;-63
2023/04/09 04:20:53;;;;;;;35.67;23.40;;;1.30;99.90;;;;;;5040396;28;20501;-63
2023/04/09 04:23:21;;;;;;;127.70;29.47;;;1.30;99.90;;;;;;5047695;28;20905;-63
2023/04/09 04:25:48;;;;;;;35.40;22.03;;;1.30;99.90;;;;;;5060111;28;20466;-63
2023/04/09 04:28:15;;;;;;;28.80;21.83;;;1.20;99.90;;;;;;5059666;28;20501;-63
2023/04/09 04:30:42;;;;;;;64.67;24.10;;;1.10;99.90;;;;;;5059879;28;20922;-63
2023/04/09 04:33:09;;;;;;;30.43;22.00;;;1.10;99.90;;;;;;5045872;28;20478;-63
2023/04/09 04:35:36;;;;;;;84.60;24.70;;;1.10;99.90;;;;;;5054100;28;20469;-63
2023/04/09 04:38:05;;;;;;;52.80;24.80;;;1.00;99.90;;;;;;5049002;28;20870;-63
2023/04/09 04:40:32;;;;;;;34.87;22.47;;;1.00;99.90;;;;;;5047571;28;20590;-63
2023/04/09 04:42:59;;;;;;;30.93;21.90;;;0.90;99.90;;;;;;5056945;28;20495;-63
2023/04/09 04:45:27;;;;;;;33.33;23.87;;;1.00;99.90;;;;;;5055213;28;20500;-63
2023/04/09 04:47:54;;;;;;;35.00;24.37;;;1.00;99.90;;;;;;5054363;28;20465;-63
2023/04/09 04:50:21;;;;;;;40.13;26.07;;;1.00;99.90;;;;;;5059543;28;20462;-63
2023/04/09 04:52:48;;;;;;;36.67;24.03;;;0.90;99.90;;;;;;5059494;28;20440;-63
2023/04/09 04:55:17;;;;;;;47.07;28.33;;;1.00;99.90;;;;;;5059791;28;20762;-63
2023/04/09 04:57:44;;;;;;;37.00;25.63;;;1.00;99.90;;;;;;5059292;28;20765;-63
2023/04/09 05:00:13;;;;;;;31.60;24.10;;;0.90;99.90;;;;;;5059359;28;20465;-63
2023/04/09 05:02:40;;;;;;;45.93;25.50;;;0.90;99.90;;;;;;5059427;28;20490;-63
2023/04/09 05:05:07;;;;;;;31.20;23.33;;;0.80;99.90;;;;;;5059589;28;20754;-63
2023/04/09 05:07:35;;;;;;;33.77;24.97;;;0.80;99.90;;;;;;5059566;28;20454;-62
2023/04/09 05:10:02;;;;;;;32.27;24.40;;;0.90;99.90;;;;;;5058534;28;20473;-62
2023/04/09 05:12:33;;;;;;;31.30;25.63;;;0.90;99.90;;;;;;5059160;28;20512;-63
2023/04/09 05:15:00;;;;;;;49.27;44.10;;;0.90;99.90;;;;;;5058631;28;20478;-62
2023/04/09 05:17:28;;;;;;;48.07;42.90;;;0.90;99.90;;;;;;5052842;28;20557;-62
2023/04/09 05:19:56;;;;;;;36.13;32.20;;;0.90;99.90;;;;;;5059565;28;20560;-62
2023/04/09 05:22:24;;;;;;;36.53;30.27;;;1.00;99.90;;;;;;5058493;28;20489;-63
2023/04/09 05:24:51;;;;;;;31.50;28.10;;;1.00;99.90;;;;;;5058613;28;20476;-62
2023/04/09 05:27:21;;;;;;;30.33;26.50;;;1.00;99.90;;;;;;5059081;28;20466;-63
2023/04/09 05:29:51;;;;;;;31.40;21.50;;;1.00;99.90;;;;;;5059026;28;20555;-63
2023/04/09 05:32:18;;;;;;;27.13;20.30;;;1.00;99.90;;;;;;5058326;28;20867;-63
2023/04/09 05:34:46;;;;;;;23.37;20.13;;;1.00;99.90;;;;;;5059183;28;20466;-63
2023/04/09 05:37:13;;;;;;;24.80;19.63;;;1.10;99.90;;;;;;5058361;28;20482;-63
2023/04/09 05:39:40;;;;;;;25.27;20.77;;;1.20;99.90;;;;;;5058671;28;20891;-63
2023/04/09 05:42:10;;;;;;;25.60;20.10;;;1.20;99.90;;;;;;5055615;28;20487;-63
2023/04/09 05:44:37;;;;;;;23.13;19.77;;;1.30;99.90;;;;;;5047082;28;20565;-63
2023/04/09 05:47:06;;;;;;;24.70;19.47;;;1.30;99.90;;;;;;5048905;28;20904;-63
2023/04/09 05:49:33;;;;;;;23.93;20.23;;;1.40;99.90;;;;;;5049551;28;20481;-63
2023/04/09 05:52:00;;;;;;;27.87;21.13;;;1.40;99.90;;;;;;5056840;28;20461;-63
2023/04/09 05:54:31;;;;;;;24.40;20.43;;;1.50;99.90;;;;;;5055494;28;20548;-63
2023/04/09 05:56:58;;;;;;;25.73;21.10;;;1.70;99.90;;;;;;5054999;28;20474;-63
2023/04/09 05:59:25;;;;;;;24.20;20.37;;;1.80;99.90;;;;;;5054595;28;20479;-63
2023/04/09 06:01:53;;;;;;;24.03;21.00;;;1.90;99.90;;;;;;5052524;28;20486;-63
2023/04/09 06:04:22;;;;;;;29.60;24.87;;;2.10;99.90;;;;;;5056726;28;20509;-63
2023/04/09 06:06:50;;;;;;;27.03;22.77;;;2.30;99.90;;;;;;5056211;28;20550;-63
2023/04/09 06:09:17;;;;;;;30.13;22.33;;;2.50;99.90;;;;;;5056574;28;20561;-63
2023/04/09 06:11:44;;;;;;;34.10;25.07;;;2.60;99.90;;;;;;5056649;28;20458;-62
2023/04/09 06:14:15;;;;;;;31.67;24.67;;;2.80;99.90;;;;;;5055724;28;20459;-62
2023/04/09 06:16:42;;;;;;;29.53;23.57;;;2.90;99.90;;;;;;5056127;28;20436;-63
2023/04/09 06:19:11;;;;;;;31.57;24.40;;;3.00;99.90;;;;;;5057154;28;20462;-63
2023/04/09 06:21:41;;;;;;;34.87;26.00;;;3.10;99.90;;;;;;5050793;28;20494;-62
2023/04/09 06:24:09;;;;;;;31.77;26.47;;;3.40;99.90;;;;;;5045633;28;20520;-63
2023/04/09 06:26:36;;;;;;;32.27;25.13;;;3.70;99.90;;;;;;5041107;28;20441;-63
2023/04/09 06:29:03;;;;;;;31.73;25.07;;;3.90;99.90;;;;;;5048053;28;20467;-64
2023/04/09 06:31:30;;;;;;;32.13;23.90;;;4.20;99.90;;;;;;5044664;28;20517;-64
2023/04/09 06:33:57;;;;;;;30.90;24.57;;;4.50;99.90;;;;;;5043101;28;20469;-63
2023/04/09 06:36:25;;;;;;;28.50;23.90;;;4.50;99.90;;;;;;5056871;28;20462;-61
2023/04/09 06:38:54;;;;;;;28.43;23.50;;;4.80;99.90;;;;;;5045027;28;20493;-60
2023/04/09 06:41:21;;;;;;;29.53;24.17;;;5.40;99.90;;;;;;5049446;28;20766;-60
2023/04/09 06:43:50;;;;;;;27.63;23.63;;;5.60;99.90;;;;;;5046507;28;20467;-61
2023/04/09 06:46:19;;;;;;;30.27;24.23;;;5.80;99.90;;;;;;5047276;28;20441;-61
2023/04/09 06:48:46;;;;;;;36.00;28.00;;;6.00;99.90;;;;;;5046213;28;20465;-61
2023/04/09 06:51:13;;;;;;;37.73;29.07;;;6.30;99.90;;;;;;5056684;28;20454;-62
2023/04/09 06:53:40;;;;;;;30.23;25.20;;;6.60;99.90;;;;;;5049498;28;20553;-62
2023/04/09 06:56:09;;;;;;;31.77;25.40;;;7.10;99.90;;;;;;5048283;28;20470;-62
2023/04/09 06:58:36;;;;;;;27.87;23.77;;;7.00;99.90;;;;;;5053282;28;20459;-62
2023/04/09 07:01:04;;;;;;;28.97;23.50;;;7.20;99.90;;;;;;5051484;28;20471;-63
2023/04/09 07:03:31;;;;;;;26.10;21.83;;;7.60;99.90;;;;;;5041551;28;20949;-63
2023/04/09 07:05:59;;;;;;;24.33;19.83;;;7.90;99.90;;;;;;5048687;28;20474;-63
2023/04/09 07:08:27;;;;;;;22.40;18.53;;;8.40;99.90;;;;;;5043804;28;20465;-62
2023/04/09 07:10:55;;;;;;;21.50;16.63;;;8.80;99.90;;;;;;5054848;28;20489;-62
2023/04/09 07:13:25;;;;;;;21.73;17.63;;;9.00;99.90;;;;;;5054731;28;20454;-62
2023/04/09 07:15:52;;;;;;;19.13;16.90;;;9.30;99.90;;;;;;5050718;28;20469;-62
2023/04/09 07:18:19;;;;;;;20.47;16.10;;;9.60;81.40;;;;;;5050480;28;20447;-62
2023/04/09 07:20:47;;;;;;;17.80;14.90;;;9.80;1.00;;;;;;5054697;28;21094;-62
2023/04/09 07:23:14;;;;;;;20.60;15.83;;;9.90;1.00;;;;;;5054660;28;20497;-62
2023/04/09 07:25:42;;;;;;;17.40;14.60;;;10.20;1.00;;;;;;5054353;28;20890;-62
2023/04/09 07:28:10;;;;;;;19.50;14.70;;;10.50;1.00;;;;;;5055227;28;20528;-63
2023/04/09 07:30:41;;;;;;;22.47;15.20;;;10.80;1.00;;;;;;5054002;28;20512;-63
2023/04/09 07:33:08;;;;;;;16.67;14.40;;;11.00;1.00;;;;;;5055023;28;20915;-64
2023/04/09 07:35:36;;;;;;;17.30;14.47;;;11.20;1.00;;;;;;5054738;28;20462;-64
2023/04/09 07:38:05;;;;;;;19.03;15.03;;;11.40;1.00;;;;;;5055052;28;20482;-64
2023/04/09 07:40:36;;;;;;;17.40;15.00;;;11.40;1.00;;;;;;5056136;28;20864;-63
2023/04/09 07:43:04;;;;;;;18.23;14.73;;;11.70;1.00;;;;;;5056752;28;20494;-64
2023/04/09 07:45:33;;;;;;;18.60;15.40;;;11.90;1.00;;;;;;5056155;28;20470;-63
2023/04/09 07:48:02;;;;;;;17.50;15.20;;;12.10;1.00;;;;;;5054203;28;20463;-63
2023/04/09 07:50:30;;;;;;;18.10;15.20;;;12.10;1.00;;;;;;5054891;28;20511;-63
2023/04/09 07:52:59;;;;;;;17.00;14.53;;;12.20;99.90;;;;;;5052339;28;20793;-63
2023/04/09 07:55:27;;;;;;;16.90;13.77;;;12.40;99.90;;;;;;5055371;28;20872;-62
2023/04/09 07:57:54;;;;;;;20.77;15.67;;;12.60;99.90;;;;;;5053213;28;20891;-63
2023/04/09 08:00:21;;;;;;;18.73;14.67;;;12.60;99.90;;;;;;5054354;28;20459;-63
2023/04/09 08:02:48;;;;;;;16.40;14.10;;;12.50;99.90;;;;;;5055656;28;20512;-63
2023/04/09 08:05:17;;;;;;;15.77;14.07;;;12.50;99.90;;;;;;5054820;28;20462;-62
2023/04/09 08:07:44;;;;;;;16.40;13.93;;;12.70;99.90;;;;;;5054563;28;20898;-62
2023/04/09 08:10:14;;;;;;;16.73;14.47;;;12.90;99.90;;;;;;5055388;28;20481;-63
2023/04/09 08:12:41;;;;;;;14.87;12.93;;;13.10;99.90;;;;;;5055551;28;20545;-63
2023/04/09 08:15:09;;;;;;;15.43;13.80;;;13.10;99.90;;;;;;5052391;28;20541;-63
2023/04/09 08:17:36;;;;;;;14.37;12.87;;;13.20;99.90;;;;;;5054005;28;20490;-64
2023/04/09 08:20:05;;;;;;;13.80;11.80;;;13.40;99.90;;;;;;5055218;28;20949;-63
2023/04/09 08:22:33;;;;;;;16.00;13.20;;;13.50;99.90;;;;;;5054497;28;20493;-63
2023/04/09 08:25:00;;;;;;;13.93;12.27;;;13.70;99.90;;;;;;5056013;28;20462;-64
2023/04/09 08:27:27;;;;;;;13.73;12.33;;;13.70;99.90;;;;;;5057857;28;20454;-64
2023/04/09 08:29:55;;;;;;;13.07;11.60;;;13.50;99.90;;;;;;5056657;28;20523;-63
2023/04/09 08:32:22;;;;;;;13.57;11.00;;;13.50;99.90;;;;;;5055714;28;20454;-64
2023/04/09 08:34:49;;;;;;;12.90;10.60;;;13.60;99.90;;;;;;5053371;28;20461;-63
2023/04/09 08:37:16;;;;;;;12.67;10.97;;;13.50;99.90;;;;;;5056717;28;20549;-63
2023/04/09 08:39:45;;;;;;;13.10;10.73;;;13.60;99.90;;;;;;5058111;28;20793;-63
2023/04/09 08:42:13;;;;;;;13.00;11.20;;;13.90;99.90;;;;;;5058680;28;20592;-64
2023/04/09 08:44:41;;;;;;;13.10;11.40;;;14.10;99.90;;;;;;5058357;28;20462;-64
2023/04/09 08:47:10;;;;;;;12.67;11.37;;;14.00;99.90;;;;;;5059376;28;20887;-64
2023/04/09 08:49:39;;;;;;;12.07;10.77;;;13.30;99.90;;;;;;5057633;28;20458;-63
2023/04/09 08:52:06;;;;;;;12.50;11.30;;;13.50;99.90;;;;;;5059274;28;20458;-63
2023/04/09 09:18:57;;;;;;;11.40;9.83;;;15.10;99.90;;;;;;5059070;28;20924;-64
2023/04/09 20:30:09;;;;;;;14.13;9.73;;;7.30;99.90;;;;;;5016353;28;20447;-62
2023/04/09 20:32:37;;;;;;;10.40;8.90;;;7.10;99.90;;;;;;4998957;28;20787;-62
2023/04/09 20:35:04;;;;;;;12.07;10.10;;;7.10;99.90;;;;;;4998753;28;20467;-62
2023/04/09 20:37:31;;;;;;;12.30;9.37;;;7.10;99.90;;;;;;4998951;28;20797;-62
2023/04/09 20:39:59;;;;;;;11.30;9.30;;;7.10;99.90;;;;;;4998887;28;20751;-62
2023/04/09 20:42:26;;;;;;;12.80;10.33;;;7.00;99.90;;;;;;5011838;28;20539;-61
2023/04/09 20:44:54;;;;;;;11.70;9.50;;;7.00;99.90;;;;;;5018489;28;20470;-62
2023/04/09 20:47:23;;;;;;;11.00;9.80;;;6.90;99.90;;;;;;5018138;28;20827;-62
2023/04/09 20:49:51;;;;;;;12.33;9.20;;;6.90;99.90;;;;;;5017967;28;20482;-59
2023/04/09 20:52:19;;;;;;;12.73;10.07;;;6.80;99.90;;;;;;5018254;28;20571;-60
2023/04/09 20:54:46;;;;;;;11.87;10.40;;;6.80;99.90;;;;;;5018298;28;20460;-59
2023/04/09 20:57:13;;;;;;;12.00;9.70;;;6.80;99.90;;;;;;5018133;28;20491;-59
2023/04/09 20:59:40;;;;;;;13.50;10.17;;;6.90;99.90;;;;;;5016874;28;20460;-56
2023/04/09 21:02:07;;;;;;;12.67;10.87;;;6.80;99.90;;;;;;5018056;28;20469;-60
2023/04/09 21:04:36;;;;;;;12.63;10.47;;;6.90;99.90;;;;;;5015711;28;20799;-58
2023/04/09 21:07:03;;;;;;;14.50;11.37;;;6.80;99.90;;;;;;5017624;28;20474;-58
2023/04/09 21:09:30;;;;;;;11.60;10.33;;;6.80;99.90;;;;;;5017934;28;20570;-59
2023/04/09 21:11:58;;;;;;;14.53;10.20;;;6.80;99.90;;;;;;5017787;28;20475;-56
2023/04/09 21:14:25;;;;;;;12.10;10.03;;;6.70;99.90;;;;;;5017855;28;20587;-60
2023/04/09 21:16:54;;;;;;;12.07;10.77;;;6.70;99.90;;;;;;5018148;28;20472;-60
2023/04/09 21:19:21;;;;;;;13.00;11.00;;;6.70;99.90;;;;;;5018546;28;20464;-60
2023/04/09 21:21:50;;;;;;;12.83;11.50;;;6.70;99.90;;;;;;5013517;28;20464;-59
2023/04/09 21:24:18;;;;;;;14.73;11.63;;;6.70;99.90;;;;;;4999760;28;20500;-55
2023/04/09 21:26:46;;;;;;;14.80;11.93;;;6.50;99.90;;;;;;5006985;28;20754;-60
2023/04/09 21:29:13;;;;;;;13.10;11.70;;;6.50;99.90;;;;;;5019253;28;20468;-60
2023/04/09 21:31:40;;;;;;;13.30;11.20;;;6.50;99.90;;;;;;5047569;28;20478;-60
2023/04/09 21:34:07;;;;;;;14.20;11.70;;;6.40;99.90;;;;;;5058903;28;20462;-58
2023/04/09 21:36:37;;;;;;;12.50;11.20;;;6.30;99.90;;;;;;5058942;28;20661;-61
2023/04/09 21:39:06;;;;;;;15.50;11.70;;;6.20;99.90;;;;;;5058200;28;20458;-59
2023/04/09 21:41:33;;;;;;;13.90;11.17;;;6.20;99.90;;;;;;5058766;28;20462;-59
2023/04/09 21:44:06;;;;;;;16.40;12.20;;;6.20;99.90;;;;;;5059261;28;20581;-60
2023/04/09 21:46:34;;;;;;;16.30;12.00;;;6.30;99.90;;;;;;5059389;28;20468;-60
2023/04/09 21:49:01;;;;;;;13.20;11.60;;;6.30;99.90;;;;;;5058780;28;20462;-60
2023/04/09 21:51:28;;;;;;;13.23;11.30;;;6.30;99.90;;;;;;5058461;28;20466;-60
2023/04/09 21:54:03;;;;;;;14.97;12.50;;;6.30;99.90;;;;;;5058212;28;20494;-60
2023/04/09 21:56:32;;;;;;;17.10;12.17;;;6.30;99.90;;;;;;5058738;28;20816;-60
2023/04/09 21:58:59;;;;;;;13.70;11.57;;;6.30;99.90;;;;;;5058292;28;20462;-60
2023/04/09 22:01:29;;;;;;;14.80;12.60;;;6.20;99.90;;;;;;5058374;28;20465;-60
2023/04/09 22:03:56;;;;;;;15.03;12.33;;;6.10;99.90;;;;;;5058580;28;20532;-59
2023/04/09 22:06:23;;;;;;;14.90;11.80;;;6.00;99.90;;;;;;5058312;28;20437;-60
2023/04/09 22:08:50;;;;;;;16.63;12.67;;;5.90;99.90;;;;;;5058427;28;20752;-59
2023/04/09 22:11:17;;;;;;;14.73;12.30;;;5.80;99.90;;;;;;5057830;28;20462;-58
2023/04/09 22:13:46;;;;;;;13.30;11.33;;;5.70;99.90;;;;;;5057942;28;20454;-60
2023/04/09 22:16:13;;;;;;;14.47;12.07;;;5.60;99.90;;;;;;5057413;28;20462;-58
2023/04/09 22:18:40;;;;;;;14.30;11.53;;;5.60;99.90;;;;;;5057928;28;20923;-60
2023/04/09 22:21:08;;;;;;;12.93;11.03;;;5.40;1.00;;;;;;5057960;28;20770;-60
2023/04/09 22:23:35;;;;;;;13.20;11.40;;;5.50;1.00;;;;;;5058236;28;20490;-58
2023/04/09 22:26:03;;;;;;;14.03;11.97;;;5.40;1.00;;;;;;5057954;28;20906;-59
2023/04/09 22:28:30;;;;;;;14.03;11.60;;;5.40;1.00;;;;;;5057473;28;20561;-60
2023/04/09 22:30:59;;;;;;;15.87;12.70;;;5.40;1.00;;;;;;5056785;28;20930;-59
2023/04/09 22:33:26;;;;;;;17.63;12.80;;;5.40;1.00;;;;;;5056475;28;20725;-59
2023/04/09 22:35:53;;;;;;;20.17;14.50;;;5.40;1.00;;;;;;5053327;28;20462;-60
2023/04/09 22:38:21;;;;;;;16.50;12.77;;;5.40;1.00;;;;;;5057437;28;20468;-58
2023/04/09 22:40:49;;;;;;;19.50;13.83;;;5.40;1.00;;;;;;5057968;28;20768;-59
2023/04/09 22:43:17;;;;;;;15.60;13.40;;;5.30;1.00;;;;;;5054848;28;20452;-60
2023/04/09 22:45:51;;;;;;;15.03;12.40;;;5.40;1.00;;;;;;5056658;28;20903;-61
2023/04/09 22:48:20;;;;;;;19.30;13.43;;;5.30;1.00;;;;;;5055031;28;20473;-58
2023/04/09 22:50:48;;;;;;;14.67;11.70;;;5.30;1.00;;;;;;5057453;28;20475;-59
2023/04/09 22:53:17;;;;;;;16.70;13.80;;;5.20;1.00;;;;;;5057742;28;20748;-61
2023/04/09 22:55:47;;;;;;;15.67;12.47;;;5.30;1.00;;;;;;5057730;28;20869;-60
2023/04/09 22:58:14;;;;;;;14.30;12.80;;;5.30;1.00;;;;;;5057760;28;20881;-58
2023/04/09 23:00:41;;;;;;;15.30;13.40;;;5.20;1.00;;;;;;5056583;28;20489;-57
2023/04/09 23:03:09;;;;;;;14.53;12.20;;;5.10;1.00;;;;;;5054977;28;20561;-58
2023/04/09 23:05:38;;;;;;;18.23;13.47;;;5.10;1.00;;;;;;5057298;28;20493;-59
2023/04/09 23:08:06;;;;;;;18.07;13.03;;;5.10;1.00;;;;;;5056383;28;20474;-59
2023/04/09 23:10:34;;;;;;;16.73;13.97;;;5.00;1.00;;;;;;5057162;28;20502;-60
2023/04/09 23:13:01;;;;;;;14.00;11.27;;;5.00;1.00;;;;;;5057246;28;20715;-60
2023/04/09 23:15:29;;;;;;;15.63;13.23;;;4.90;1.00;;;;;;5056252;28;20498;-60
2023/04/09 23:17:56;;;;;;;17.83;13.37;;;4.80;1.00;;;;;;5056875;28;20970;-59
2023/04/09 23:20:23;;;;;;;18.53;12.10;;;4.80;1.00;;;;;;5057430;28;20462;-60
2023/04/09 23:22:52;;;;;;;16.10;13.27;;;4.80;1.00;;;;;;5056692;28;20748;-61
2023/04/09 23:25:20;;;;;;;13.80;12.20;;;4.80;1.00;;;;;;5056887;28;20535;-60
2023/04/09 23:27:47;;;;;;;19.63;13.63;;;4.70;1.00;;;;;;5055318;28;20480;-61
2023/04/09 23:30:16;;;;;;;19.17;12.77;;;4.70;1.00;;;;;;5055256;28;20498;-58
2023/04/09 23:32:44;;;;;;;15.87;12.90;;;4.70;1.00;;;;;;5055801;28;20760;-61
2023/04/09 23:35:12;;;;;;;15.50;12.07;;;4.60;1.00;;;;;;5057077;28;20891;-60
2023/04/09 23:37:39;;;;;;;14.67;12.57;;;4.60;1.00;;;;;;5056995;28;20484;-59
2023/04/09 23:40:08;;;;;;;14.37;12.07;;;4.60;1.00;;;;;;5057120;28;20806;-60
2023/04/09 23:42:35;;;;;;;16.90;14.20;;;4.50;1.00;;;;;;5057185;28;20469;-61
2023/04/09 23:45:04;;;;;;;16.93;12.13;;;4.50;1.00;;;;;;5056437;28;20500;-60
2023/04/09 23:47:32;;;;;;;14.60;12.40;;;4.50;1.00;;;;;;5056296;28;20462;-60
2023/04/09 23:50:03;;;;;;;15.37;13.53;;;4.40;1.00;;;;;;5055889;28;20473;-61
2023/04/09 23:52:30;;;;;;;17.27;13.73;;;4.40;1.00;;;;;;5057026;28;20523;-58
2023/04/09 23:54:58;;;;;;;17.40;13.30;;;4.50;1.00;;;;;;5057414;28;20894;-60
2023/04/09 23:57:27;;;;;;;16.93;13.77;;;4.40;1.00;;;;;;5061054;28;20761;-61
2023/04/09 23:59:54;;;;;;;15.37;13.40;;;4.40;1.00;;;;;;5060840;28;20506;-61
